sensor_id;sensor_type;location;lat;lon;timestamp;P1;durP1;ratioP1;P2;durP2;ratioP2
11655;SDS011;5884;43.618;1.438;2023-02-23T05:46:38;33.93;;;19.00;;
11655;SDS011;5884;43.618;1.438;2023-02-23T05:49:06;31.37;;;18.67;;
11655;SDS011;5884;43.618;1.438;2023-02-23T05:51:33;26.03;;;18.40;;
11655;SDS011;5884;43.618;1.438;2023-02-23T05:54:01;24.97;;;18.17;;
11655;SDS011;5884;43.618;1.438;2023-02-23T05:56:28;29.10;;;18.00;;
11655;SDS011;5884;43.618;1.438;2023-02-23T05:58:55;24.83;;;17.33;;
11655;SDS011;5884;43.618;1.438;2023-02-23T06:01:24;25.33;;;17.07;;
11655;SDS011;5884;43.618;1.438;2023-02-23T06:03:54;26.63;;;16.53;;
11655;SDS011;5884;43.618;1.438;2023-02-23T06:06:21;26.80;;;17.50;;
11655;SDS011;5884;43.618;1.438;2023-02-23T06:08:49;27.67;;;17.17;;
11655;SDS011;5884;43.618;1.438;2023-02-23T06:11:17;29.03;;;18.23;;
11655;SDS011;5884;43.618;1.438;2023-02-23T06:13:44;36.13;;;18.50;;
11655;SDS011;5884;43.618;1.438;2023-02-23T06:16:12;45.33;;;17.27;;
11655;SDS011;5884;43.618;1.438;2023-02-23T06:18:39;36.23;;;19.10;;
11655;SDS011;5884;43.618;1.438;2023-02-23T06:21:08;45.63;;;19.07;;
11655;SDS011;5884;43.618;1.438;2023-02-23T06:23:35;50.97;;;18.67;;
11655;SDS011;5884;43.618;1.438;2023-02-23T06:26:03;36.47;;;18.10;;
11655;SDS011;5884;43.618;1.438;2023-02-23T06:28:30;74.93;;;17.80;;
11655;SDS011;5884;43.618;1.438;2023-02-23T06:30:57;56.97;;;17.90;;
11655;SDS011;5884;43.618;1.438;2023-02-23T06:33:25;48.03;;;17.83;;
11655;SDS011;5884;43.618;1.438;2023-02-23T06:35:52;52.30;;;17.17;;
11655;SDS011;5884;43.618;1.438;2023-02-23T06:38:21;51.53;;;18.00;;
11655;SDS011;5884;43.618;1.438;2023-02-23T06:40:49;45.10;;;16.63;;
11655;SDS011;5884;43.618;1.438;2023-02-23T06:43:16;36.87;;;16.97;;
11655;SDS011;5884;43.618;1.438;2023-02-23T06:45:45;39.77;;;17.20;;
11655;SDS011;5884;43.618;1.438;2023-02-23T06:48:12;62.17;;;17.37;;
11655;SDS011;5884;43.618;1.438;2023-02-23T06:50:39;34.10;;;17.33;;
11655;SDS011;5884;43.618;1.438;2023-02-23T06:53:07;36.13;;;17.17;;
11655;SDS011;5884;43.618;1.438;2023-02-23T06:55:36;35.03;;;18.23;;
11655;SDS011;5884;43.618;1.438;2023-02-23T06:58:03;41.37;;;19.10;;
11655;SDS011;5884;43.618;1.438;2023-02-23T07:00:32;37.67;;;19.10;;
11655;SDS011;5884;43.618;1.438;2023-02-23T07:02:59;48.77;;;18.20;;
11655;SDS011;5884;43.618;1.438;2023-02-23T07:05:26;31.17;;;18.97;;
11655;SDS011;5884;43.618;1.438;2023-02-23T07:07:53;39.90;;;19.03;;
11655;SDS011;5884;43.618;1.438;2023-02-23T07:10:21;35.33;;;18.03;;
11655;SDS011;5884;43.618;1.438;2023-02-23T07:12:49;29.73;;;18.53;;
11655;SDS011;5884;43.618;1.438;2023-02-23T07:15:19;37.60;;;19.47;;
11655;SDS011;5884;43.618;1.438;2023-02-23T07:17:46;34.07;;;17.63;;
11655;SDS011;5884;43.618;1.438;2023-02-23T07:20:15;33.43;;;18.93;;
11655;SDS011;5884;43.618;1.438;2023-02-23T07:22:43;37.10;;;19.60;;
11655;SDS011;5884;43.618;1.438;2023-02-23T07:25:11;34.80;;;18.47;;
11655;SDS011;5884;43.618;1.438;2023-02-23T07:27:38;33.83;;;18.00;;
11655;SDS011;5884;43.618;1.438;2023-02-23T07:30:08;34.93;;;18.43;;
11655;SDS011;5884;43.618;1.438;2023-02-23T07:32:37;28.60;;;17.97;;
11655;SDS011;5884;43.618;1.438;2023-02-23T07:35:05;36.67;;;20.00;;
11655;SDS011;5884;43.618;1.438;2023-02-23T07:37:33;30.77;;;18.50;;
11655;SDS011;5884;43.618;1.438;2023-02-23T07:40:00;31.00;;;18.20;;
11655;SDS011;5884;43.618;1.438;2023-02-23T07:42:28;34.67;;;18.23;;
11655;SDS011;5884;43.618;1.438;2023-02-23T07:44:55;37.87;;;19.60;;
11655;SDS011;5884;43.618;1.438;2023-02-23T07:47:23;34.90;;;19.77;;
11655;SDS011;5884;43.618;1.438;2023-02-23T07:49:55;33.73;;;18.90;;
11655;SDS011;5884;43.618;1.438;2023-02-23T07:52:24;36.90;;;19.33;;
11655;SDS011;5884;43.618;1.438;2023-02-23T07:54:52;32.90;;;19.30;;
11655;SDS011;5884;43.618;1.438;2023-02-23T07:57:19;43.07;;;22.43;;
11655;SDS011;5884;43.618;1.438;2023-02-23T07:59:47;40.90;;;23.23;;
11655;SDS011;5884;43.618;1.438;2023-02-23T08:02:14;35.27;;;20.77;;
11655;SDS011;5884;43.618;1.438;2023-02-23T08:04:43;39.90;;;21.67;;
11655;SDS011;5884;43.618;1.438;2023-02-23T08:07:10;38.40;;;20.57;;
11655;SDS011;5884;43.618;1.438;2023-02-23T08:09:37;41.47;;;22.83;;
11655;SDS011;5884;43.618;1.438;2023-02-23T08:12:05;37.77;;;21.07;;
11655;SDS011;5884;43.618;1.438;2023-02-23T08:14:32;42.87;;;26.57;;
11655;SDS011;5884;43.618;1.438;2023-02-23T08:16:59;49.40;;;27.33;;
11655;SDS011;5884;43.618;1.438;2023-02-23T08:19:26;39.80;;;21.70;;
11655;SDS011;5884;43.618;1.438;2023-02-23T08:21:56;38.57;;;19.10;;
11655;SDS011;5884;43.618;1.438;2023-02-23T08:24:23;38.07;;;20.93;;
11655;SDS011;5884;43.618;1.438;2023-02-23T08:26:53;40.07;;;23.30;;
11655;SDS011;5884;43.618;1.438;2023-02-23T08:29:20;39.93;;;22.17;;
11655;SDS011;5884;43.618;1.438;2023-02-23T08:31:48;32.97;;;18.93;;
11655;SDS011;5884;43.618;1.438;2023-02-23T08:34:16;40.87;;;18.13;;
11655;SDS011;5884;43.618;1.438;2023-02-23T08:36:44;33.23;;;17.40;;
11655;SDS011;5884;43.618;1.438;2023-02-23T08:39:12;35.43;;;18.00;;
11655;SDS011;5884;43.618;1.438;2023-02-23T08:41:40;32.17;;;17.43;;
11655;SDS011;5884;43.618;1.438;2023-02-23T08:44:08;32.33;;;19.53;;
11655;SDS011;5884;43.618;1.438;2023-02-23T08:46:35;33.77;;;18.20;;
11655;SDS011;5884;43.618;1.438;2023-02-23T08:49:03;35.13;;;18.10;;
11655;SDS011;5884;43.618;1.438;2023-02-23T08:51:30;32.47;;;18.00;;
11655;SDS011;5884;43.618;1.438;2023-02-23T08:53:59;32.57;;;17.37;;
11655;SDS011;5884;43.618;1.438;2023-02-23T08:56:28;31.77;;;18.10;;
11655;SDS011;5884;43.618;1.438;2023-02-23T08:58:55;29.43;;;18.17;;
11655;SDS011;5884;43.618;1.438;2023-02-23T09:01:23;33.60;;;17.70;;
11655;SDS011;5884;43.618;1.438;2023-02-23T09:03:50;34.73;;;17.60;;
11655;SDS011;5884;43.618;1.438;2023-02-23T09:06:18;27.03;;;17.43;;
11655;SDS011;5884;43.618;1.438;2023-02-23T09:08:49;31.83;;;16.90;;
11655;SDS011;5884;43.618;1.438;2023-02-23T09:11:17;34.50;;;16.97;;
11655;SDS011;5884;43.618;1.438;2023-02-23T09:13:46;32.00;;;16.27;;
11655;SDS011;5884;43.618;1.438;2023-02-23T09:16:13;38.70;;;17.13;;
11655;SDS011;5884;43.618;1.438;2023-02-23T09:18:41;31.20;;;16.87;;
11655;SDS011;5884;43.618;1.438;2023-02-23T09:21:12;29.17;;;15.87;;
11655;SDS011;5884;43.618;1.438;2023-02-23T09:23:45;31.27;;;16.10;;
11655;SDS011;5884;43.618;1.438;2023-02-23T09:26:14;33.80;;;16.73;;
11655;SDS011;5884;43.618;1.438;2023-02-23T09:28:42;36.37;;;17.03;;
11655;SDS011;5884;43.618;1.438;2023-02-23T09:31:13;30.23;;;16.03;;
11655;SDS011;5884;43.618;1.438;2023-02-23T09:33:42;38.60;;;15.90;;
11655;SDS011;5884;43.618;1.438;2023-02-23T09:36:10;30.10;;;15.83;;
11655;SDS011;5884;43.618;1.438;2023-02-23T09:38:40;33.87;;;17.23;;
11655;SDS011;5884;43.618;1.438;2023-02-23T09:44:24;10.90;;;6.67;;
11655;SDS011;5884;43.618;1.438;2023-02-23T09:47:15;6.63;;;3.37;;
11655;SDS011;5884;43.618;1.438;2023-02-23T09:49:53;3.90;;;2.60;;
11655;SDS011;5884;43.618;1.438;2023-02-23T09:52:24;4.90;;;2.60;;
11655;SDS011;5884;43.618;1.438;2023-02-23T09:54:57;2.33;;;1.90;;
11655;SDS011;5884;43.618;1.438;2023-02-23T09:57:27;3.43;;;1.90;;
11655;SDS011;5884;43.618;1.438;2023-02-23T10:00:05;3.53;;;2.03;;
11655;SDS011;5884;43.618;1.438;2023-02-23T10:02:49;4.70;;;1.80;;
11655;SDS011;5884;43.618;1.438;2023-02-23T10:05:44;1.87;;;1.50;;
11655;SDS011;5884;43.618;1.438;2023-02-23T10:08:18;2.80;;;1.40;;
11655;SDS011;5884;43.618;1.438;2023-02-23T10:11:02;2.10;;;1.90;;
11655;SDS011;5884;43.618;1.438;2023-02-23T10:13:40;1.83;;;1.37;;
11655;SDS011;5884;43.618;1.438;2023-02-23T10:16:16;1.20;;;0.93;;
11655;SDS011;5884;43.618;1.438;2023-02-23T10:18:50;2.20;;;0.60;;
11655;SDS011;5884;43.618;1.438;2023-02-23T10:21:26;4.60;;;1.73;;
11655;SDS011;5884;43.618;1.438;2023-02-23T10:24:01;1.40;;;0.93;;
11655;SDS011;5884;43.618;1.438;2023-02-23T10:26:40;2.00;;;0.83;;
11655;SDS011;5884;43.618;1.438;2023-02-23T10:29:16;1.10;;;0.87;;
11655;SDS011;5884;43.618;1.438;2023-02-23T10:31:50;1.43;;;0.80;;
11655;SDS011;5884;43.618;1.438;2023-02-23T10:34:23;0.83;;;0.83;;
11655;SDS011;5884;43.618;1.438;2023-02-23T10:36:56;1.63;;;0.90;;
11655;SDS011;5884;43.618;1.438;2023-02-23T10:39:26;1.27;;;0.70;;
11655;SDS011;5884;43.618;1.438;2023-02-23T10:41:54;1.70;;;1.07;;
11655;SDS011;5884;43.618;1.438;2023-02-23T10:44:24;1.73;;;1.20;;
11655;SDS011;5884;43.618;1.438;2023-02-23T10:46:54;1.53;;;1.17;;
11655;SDS011;5884;43.618;1.438;2023-02-23T10:49:27;1.00;;;0.80;;
11655;SDS011;5884;43.618;1.438;2023-02-23T10:52:07;1.07;;;0.77;;
11655;SDS011;5884;43.618;1.438;2023-02-23T10:54:41;2.67;;;1.30;;
11655;SDS011;5884;43.618;1.438;2023-02-23T10:57:12;2.13;;;1.20;;
11655;SDS011;5884;43.618;1.438;2023-02-23T10:59:57;2.03;;;1.10;;
11655;SDS011;5884;43.618;1.438;2023-02-23T11:02:51;3.70;;;1.00;;
11655;SDS011;5884;43.618;1.438;2023-02-23T11:05:34;1.37;;;1.00;;
11655;SDS011;5884;43.618;1.438;2023-02-23T11:08:12;1.67;;;1.20;;
11655;SDS011;5884;43.618;1.438;2023-02-23T11:11:00;1.23;;;1.00;;
11655;SDS011;5884;43.618;1.438;2023-02-23T11:13:35;1.57;;;1.10;;
11655;SDS011;5884;43.618;1.438;2023-02-23T11:16:06;1.90;;;1.30;;
11655;SDS011;5884;43.618;1.438;2023-02-23T11:18:37;1.00;;;0.90;;
11655;SDS011;5884;43.618;1.438;2023-02-23T11:21:12;2.57;;;1.67;;
11655;SDS011;5884;43.618;1.438;2023-02-23T11:23:43;3.60;;;1.50;;
11655;SDS011;5884;43.618;1.438;2023-02-23T11:26:22;2.40;;;1.60;;
11655;SDS011;5884;43.618;1.438;2023-02-23T11:28:56;2.67;;;1.60;;
11655;SDS011;5884;43.618;1.438;2023-02-23T11:31:31;1.53;;;1.20;;
11655;SDS011;5884;43.618;1.438;2023-02-23T11:34:01;2.30;;;1.40;;
11655;SDS011;5884;43.618;1.438;2023-02-23T11:36:32;3.50;;;1.97;;
11655;SDS011;5884;43.618;1.438;2023-02-23T11:39:16;2.80;;;1.70;;
11655;SDS011;5884;43.618;1.438;2023-02-23T11:41:53;2.50;;;2.00;;
11655;SDS011;5884;43.618;1.438;2023-02-23T11:44:40;2.47;;;2.10;;
11655;SDS011;5884;43.618;1.438;2023-02-23T11:47:12;3.00;;;2.50;;
11655;SDS011;5884;43.618;1.438;2023-02-23T11:49:43;3.70;;;1.80;;
11655;SDS011;5884;43.618;1.438;2023-02-23T11:52:14;5.10;;;1.60;;
11655;SDS011;5884;43.618;1.438;2023-02-23T11:54:48;3.00;;;1.50;;
11655;SDS011;5884;43.618;1.438;2023-02-23T11:57:21;2.37;;;1.80;;
11655;SDS011;5884;43.618;1.438;2023-02-23T11:59:51;2.63;;;1.80;;
11655;SDS011;5884;43.618;1.438;2023-02-23T12:02:20;2.93;;;1.70;;
11655;SDS011;5884;43.618;1.438;2023-02-23T12:04:50;3.07;;;1.60;;
11655;SDS011;5884;43.618;1.438;2023-02-23T12:07:32;2.33;;;1.30;;
11655;SDS011;5884;43.618;1.438;2023-02-23T12:10:08;1.13;;;1.00;;
11655;SDS011;5884;43.618;1.438;2023-02-23T12:13:01;3.60;;;1.60;;
11655;SDS011;5884;43.618;1.438;2023-02-23T12:15:42;1.97;;;1.50;;
11655;SDS011;5884;43.618;1.438;2023-02-23T12:18:16;2.37;;;1.60;;
11655;SDS011;5884;43.618;1.438;2023-02-23T12:21:06;2.20;;;1.70;;
11655;SDS011;5884;43.618;1.438;2023-02-23T12:23:44;4.03;;;2.00;;
11655;SDS011;5884;43.618;1.438;2023-02-23T12:26:14;2.00;;;1.80;;
11655;SDS011;5884;43.618;1.438;2023-02-23T12:28:47;2.17;;;1.73;;
11655;SDS011;5884;43.618;1.438;2023-02-23T12:31:25;1.70;;;1.60;;
11655;SDS011;5884;43.618;1.438;2023-02-23T12:33:58;2.97;;;1.50;;
11655;SDS011;5884;43.618;1.438;2023-02-23T12:36:30;2.00;;;1.50;;
11655;SDS011;5884;43.618;1.438;2023-02-23T12:39:05;2.83;;;1.50;;
11655;SDS011;5884;43.618;1.438;2023-02-23T12:41:43;2.57;;;1.70;;
11655;SDS011;5884;43.618;1.438;2023-02-23T12:44:19;2.37;;;1.80;;
11655;SDS011;5884;43.618;1.438;2023-02-23T12:46:58;3.43;;;1.30;;
11655;SDS011;5884;43.618;1.438;2023-02-23T12:49:34;2.17;;;1.70;;
11655;SDS011;5884;43.618;1.438;2023-02-23T12:52:08;2.90;;;2.20;;
11655;SDS011;5884;43.618;1.438;2023-02-23T12:54:40;3.23;;;2.40;;
11655;SDS011;5884;43.618;1.438;2023-02-23T12:57:13;3.10;;;2.13;;
11655;SDS011;5884;43.618;1.438;2023-02-23T13:03:02;1.90;;;1.23;;
11655;SDS011;5884;43.618;1.438;2023-02-23T13:05:46;2.43;;;1.50;;
11655;SDS011;5884;43.618;1.438;2023-02-23T13:08:18;1.90;;;1.40;;
11655;SDS011;5884;43.618;1.438;2023-02-23T13:10:58;2.83;;;2.00;;
11655;SDS011;5884;43.618;1.438;2023-02-23T13:13:35;2.63;;;1.70;;
11655;SDS011;5884;43.618;1.438;2023-02-23T13:16:10;3.77;;;2.10;;
11655;SDS011;5884;43.618;1.438;2023-02-23T13:18:46;4.00;;;1.80;;
11655;SDS011;5884;43.618;1.438;2023-02-23T13:21:21;3.80;;;1.73;;
11655;SDS011;5884;43.618;1.438;2023-02-23T13:23:55;1.50;;;1.30;;
11655;SDS011;5884;43.618;1.438;2023-02-23T13:26:29;3.03;;;1.60;;
11655;SDS011;5884;43.618;1.438;2023-02-23T13:29:06;2.40;;;1.50;;
11655;SDS011;5884;43.618;1.438;2023-02-23T13:31:43;1.67;;;1.57;;
11655;SDS011;5884;43.618;1.438;2023-02-23T13:34:10;2.50;;;1.57;;
11655;SDS011;5884;43.618;1.438;2023-02-23T13:36:43;2.10;;;1.90;;
11655;SDS011;5884;43.618;1.438;2023-02-23T13:39:36;5.10;;;1.50;;
11655;SDS011;5884;43.618;1.438;2023-02-23T13:42:23;2.97;;;1.60;;
11655;SDS011;5884;43.618;1.438;2023-02-23T13:45:19;1.70;;;1.60;;
11655;SDS011;5884;43.618;1.438;2023-02-23T13:48:15;2.00;;;1.73;;
11655;SDS011;5884;43.618;1.438;2023-02-23T13:50:54;2.90;;;1.87;;
11655;SDS011;5884;43.618;1.438;2023-02-23T13:53:35;3.20;;;1.73;;
11655;SDS011;5884;43.618;1.438;2023-02-23T13:56:06;3.87;;;2.50;;
11655;SDS011;5884;43.618;1.438;2023-02-23T13:58:37;4.43;;;2.33;;
11655;SDS011;5884;43.618;1.438;2023-02-23T14:01:15;4.43;;;2.10;;
11655;SDS011;5884;43.618;1.438;2023-02-23T14:03:47;2.80;;;2.07;;
11655;SDS011;5884;43.618;1.438;2023-02-23T14:06:21;2.00;;;1.80;;
11655;SDS011;5884;43.618;1.438;2023-02-23T14:08:52;2.83;;;1.97;;
11655;SDS011;5884;43.618;1.438;2023-02-23T18:03:03;12.07;;;10.80;;
11655;SDS011;5884;43.618;1.438;2023-02-23T18:05:30;13.50;;;12.00;;
11655;SDS011;5884;43.618;1.438;2023-02-23T18:07:57;11.27;;;9.67;;
11655;SDS011;5884;43.618;1.438;2023-02-23T18:10:24;19.87;;;15.93;;
11655;SDS011;5884;43.618;1.438;2023-02-23T18:12:52;12.40;;;9.80;;
11655;SDS011;5884;43.618;1.438;2023-02-23T18:15:19;12.00;;;10.27;;
11655;SDS011;5884;43.618;1.438;2023-02-23T18:17:48;12.63;;;10.73;;
11655;SDS011;5884;43.618;1.438;2023-02-23T18:20:19;12.53;;;11.17;;
11655;SDS011;5884;43.618;1.438;2023-02-23T18:22:47;42.77;;;28.83;;
11655;SDS011;5884;43.618;1.438;2023-02-23T18:25:18;52.20;;;31.80;;
11655;SDS011;5884;43.618;1.438;2023-02-23T18:27:49;37.00;;;23.30;;
11655;SDS011;5884;43.618;1.438;2023-02-23T18:30:18;41.00;;;25.80;;
11655;SDS011;5884;43.618;1.438;2023-02-23T18:32:45;32.93;;;21.50;;
11655;SDS011;5884;43.618;1.438;2023-02-23T18:35:13;70.70;;;36.67;;
11655;SDS011;5884;43.618;1.438;2023-02-23T18:37:42;63.37;;;34.30;;
11655;SDS011;5884;43.618;1.438;2023-02-23T18:40:10;60.20;;;32.50;;
11655;SDS011;5884;43.618;1.438;2023-02-23T18:42:45;30.20;;;21.53;;
11655;SDS011;5884;43.618;1.438;2023-02-23T18:45:12;65.70;;;36.00;;
11655;SDS011;5884;43.618;1.438;2023-02-23T18:47:40;19.53;;;15.67;;
11655;SDS011;5884;43.618;1.438;2023-02-23T18:50:08;18.70;;;16.70;;
11655;SDS011;5884;43.618;1.438;2023-02-23T18:52:44;23.70;;;17.83;;
11655;SDS011;5884;43.618;1.438;2023-02-23T18:55:12;22.00;;;16.37;;
11655;SDS011;5884;43.618;1.438;2023-02-23T18:57:40;47.57;;;25.03;;
11655;SDS011;5884;43.618;1.438;2023-02-23T19:00:08;55.80;;;41.93;;
11655;SDS011;5884;43.618;1.438;2023-02-23T19:02:37;21.00;;;16.80;;
11655;SDS011;5884;43.618;1.438;2023-02-23T19:05:05;21.77;;;19.10;;
11655;SDS011;5884;43.618;1.438;2023-02-23T19:07:33;15.60;;;13.27;;
11655;SDS011;5884;43.618;1.438;2023-02-23T19:10:05;13.27;;;11.87;;
11655;SDS011;5884;43.618;1.438;2023-02-23T19:12:36;14.43;;;11.43;;
11655;SDS011;5884;43.618;1.438;2023-02-23T19:15:04;13.80;;;11.00;;
11655;SDS011;5884;43.618;1.438;2023-02-23T19:17:34;8.60;;;7.70;;
11655;SDS011;5884;43.618;1.438;2023-02-23T19:20:02;31.07;;;23.47;;
11655;SDS011;5884;43.618;1.438;2023-02-23T19:22:37;10.50;;;8.80;;
11655;SDS011;5884;43.618;1.438;2023-02-23T19:25:08;8.33;;;7.17;;
11655;SDS011;5884;43.618;1.438;2023-02-23T19:27:39;9.17;;;7.93;;
11655;SDS011;5884;43.618;1.438;2023-02-23T19:30:07;10.07;;;8.20;;
11655;SDS011;5884;43.618;1.438;2023-02-23T19:32:36;10.17;;;8.63;;
11655;SDS011;5884;43.618;1.438;2023-02-23T19:35:05;10.27;;;8.47;;
11655;SDS011;5884;43.618;1.438;2023-02-23T19:37:42;9.93;;;8.83;;
11655;SDS011;5884;43.618;1.438;2023-02-23T19:40:16;17.00;;;12.93;;
11655;SDS011;5884;43.618;1.438;2023-02-23T19:42:46;11.43;;;9.60;;
11655;SDS011;5884;43.618;1.438;2023-02-23T19:45:15;9.90;;;8.67;;
11655;SDS011;5884;43.618;1.438;2023-02-23T19:47:43;15.27;;;13.37;;
11655;SDS011;5884;43.618;1.438;2023-02-23T19:50:16;17.73;;;15.83;;
11655;SDS011;5884;43.618;1.438;2023-02-23T19:52:44;13.33;;;10.53;;
11655;SDS011;5884;43.618;1.438;2023-02-23T19:55:11;17.50;;;13.83;;
11655;SDS011;5884;43.618;1.438;2023-02-23T19:57:41;17.03;;;14.77;;
11655;SDS011;5884;43.618;1.438;2023-02-23T20:00:09;13.27;;;11.13;;
11655;SDS011;5884;43.618;1.438;2023-02-23T20:02:38;11.27;;;9.27;;
11655;SDS011;5884;43.618;1.438;2023-02-23T20:05:08;15.13;;;12.17;;
11655;SDS011;5884;43.618;1.438;2023-02-23T20:07:36;12.30;;;10.43;;
11655;SDS011;5884;43.618;1.438;2023-02-23T20:10:04;14.17;;;10.30;;
11655;SDS011;5884;43.618;1.438;2023-02-23T20:12:34;13.30;;;10.53;;
11655;SDS011;5884;43.618;1.438;2023-02-23T20:15:03;8.93;;;7.97;;
11655;SDS011;5884;43.618;1.438;2023-02-23T20:17:32;17.57;;;13.97;;
11655;SDS011;5884;43.618;1.438;2023-02-23T20:19:59;12.27;;;10.57;;
11655;SDS011;5884;43.618;1.438;2023-02-23T20:22:30;11.27;;;9.67;;
11655;SDS011;5884;43.618;1.438;2023-02-23T20:24:57;11.43;;;9.20;;
11655;SDS011;5884;43.618;1.438;2023-02-23T20:27:25;11.13;;;9.00;;
11655;SDS011;5884;43.618;1.438;2023-02-23T20:29:54;11.03;;;9.00;;
11655;SDS011;5884;43.618;1.438;2023-02-23T20:32:23;11.97;;;8.80;;
11655;SDS011;5884;43.618;1.438;2023-02-23T20:34:52;11.73;;;9.40;;
11655;SDS011;5884;43.618;1.438;2023-02-23T20:37:19;12.20;;;10.10;;
11655;SDS011;5884;43.618;1.438;2023-02-23T20:39:47;13.37;;;10.57;;
11655;SDS011;5884;43.618;1.438;2023-02-23T20:42:14;10.63;;;8.77;;
11655;SDS011;5884;43.618;1.438;2023-02-23T20:44:41;9.77;;;7.83;;
11655;SDS011;5884;43.618;1.438;2023-02-23T20:47:08;9.50;;;8.17;;
11655;SDS011;5884;43.618;1.438;2023-02-23T20:49:39;10.50;;;8.47;;
11655;SDS011;5884;43.618;1.438;2023-02-23T20:52:06;10.00;;;8.50;;
11655;SDS011;5884;43.618;1.438;2023-02-23T20:54:34;10.63;;;8.97;;
11655;SDS011;5884;43.618;1.438;2023-02-23T20:57:04;10.07;;;8.47;;
11655;SDS011;5884;43.618;1.438;2023-02-23T20:59:33;10.73;;;9.53;;
11655;SDS011;5884;43.618;1.438;2023-02-23T21:02:01;9.80;;;8.03;;
11655;SDS011;5884;43.618;1.438;2023-02-23T21:04:29;8.97;;;7.97;;
11655;SDS011;5884;43.618;1.438;2023-02-23T21:07:00;9.00;;;7.47;;
11655;SDS011;5884;43.618;1.438;2023-02-23T21:09:30;11.63;;;8.37;;
11655;SDS011;5884;43.618;1.438;2023-02-23T21:11:58;11.87;;;8.17;;
11655;SDS011;5884;43.618;1.438;2023-02-23T21:14:25;9.50;;;7.60;;
11655;SDS011;5884;43.618;1.438;2023-02-23T21:16:52;7.77;;;6.83;;
11655;SDS011;5884;43.618;1.438;2023-02-23T21:19:19;7.67;;;6.70;;
11655;SDS011;5884;43.618;1.438;2023-02-23T21:21:48;7.93;;;6.53;;
11655;SDS011;5884;43.618;1.438;2023-02-23T21:24:23;7.83;;;6.40;;
11655;SDS011;5884;43.618;1.438;2023-02-23T21:26:51;7.53;;;6.37;;
11655;SDS011;5884;43.618;1.438;2023-02-23T21:29:18;8.90;;;6.33;;
11655;SDS011;5884;43.618;1.438;2023-02-23T21:31:47;8.83;;;6.77;;
11655;SDS011;5884;43.618;1.438;2023-02-23T21:34:15;6.70;;;6.00;;
11655;SDS011;5884;43.618;1.438;2023-02-23T21:36:46;6.13;;;5.43;;
11655;SDS011;5884;43.618;1.438;2023-02-23T21:39:15;5.80;;;5.20;;
11655;SDS011;5884;43.618;1.438;2023-02-23T21:41:44;6.27;;;5.57;;
11655;SDS011;5884;43.618;1.438;2023-02-23T21:44:11;7.70;;;5.40;;
11655;SDS011;5884;43.618;1.438;2023-02-23T21:46:39;6.50;;;5.90;;
11655;SDS011;5884;43.618;1.438;2023-02-23T21:49:06;6.03;;;5.20;;
11655;SDS011;5884;43.618;1.438;2023-02-23T21:51:33;5.87;;;5.00;;
11655;SDS011;5884;43.618;1.438;2023-02-23T21:54:01;7.30;;;5.37;;
11655;SDS011;5884;43.618;1.438;2023-02-23T21:56:29;6.97;;;4.90;;
11655;SDS011;5884;43.618;1.438;2023-02-23T21:59:00;6.00;;;5.00;;
